Terminal Aerodrome Forecast
Issued by NWS

Home | Current Version | Previous Version | Text Only | Print | Product List | Glossary On
Versions: 1 2 3 4 5 6 7 8 9 10 11 12 13 14 15 16
000
FTUS42 TJSJ 191725
TAFJBQ
TAF
TJBQ 191725Z 1918/2018 05010KT P6SM VCSH SCT020 BKN040
      TEMPO 1919/1922 SHRA SCT014 BKN020
     FM192300 12005KT P6SM SCT015
      AMD NOT SKED 2002/2011=

USA.gov is the U.S. government's official web portal to all federal, state and local government web resources and services.